Time;durP1;ratioP1;P1;durP2;ratioP2;P2;SDS_P1;SDS_P2;PMS_P1;PMS_P2;Temp;Humidity;BMP_temperature;BMP_pressure;BME280_temperature;BME280_humidity;BME280_pressure;Samples;Min_cycle;Max_cycle;Signal;HPM_P1;HPM_P2
2024/01/27 00:00:26;;;;;;;5.50;3.90;;;26.90;1.00;;;;;;2604243;54;20190;-60
2024/01/27 00:02:52;;;;;;;8.30;3.30;;;26.90;1.00;;;;;;2604603;54;20190;-59
2024/01/27 00:05:18;;;;;;;3.60;3.13;;;26.80;1.00;;;;;;2605019;47;20168;-60
2024/01/27 00:07:43;;;;;;;5.70;4.70;;;26.70;1.00;;;;;;2604784;54;20167;-59
2024/01/27 00:10:09;;;;;;;3.77;3.30;;;26.70;1.00;;;;;;2605048;54;20155;-59
2024/01/27 00:12:36;;;;;;;3.90;3.43;;;26.60;1.00;;;;;;2604391;54;20173;-60
2024/01/27 00:15:01;;;;;;;4.57;3.07;;;26.60;1.00;;;;;;2604655;54;20188;-60
2024/01/27 00:17:27;;;;;;;4.30;3.90;;;26.60;1.00;;;;;;2605136;54;20998;-59
2024/01/27 00:19:54;;;;;;;5.27;3.60;;;26.50;1.00;;;;;;2604257;54;20160;-58
2024/01/27 00:22:23;;;;;;;5.30;3.47;;;26.40;1.00;;;;;;2605368;54;20439;-59
2024/01/27 00:24:48;;;;;;;5.53;3.60;;;26.40;1.00;;;;;;2604795;54;20430;-60
2024/01/27 00:27:14;;;;;;;5.40;3.40;;;26.30;1.00;;;;;;2603174;54;20464;-60
2024/01/27 00:29:40;;;;;;;3.70;2.93;;;26.30;1.00;;;;;;2604357;39;20871;-60
2024/01/27 00:32:06;;;;;;;3.90;3.50;;;26.20;1.00;;;;;;2605321;54;20464;-60
2024/01/27 00:34:31;;;;;;;5.33;3.83;;;26.20;1.00;;;;;;2605136;54;20165;-60
2024/01/27 00:36:57;;;;;;;5.17;3.40;;;26.10;1.00;;;;;;2604686;47;20273;-58
2024/01/27 00:39:23;;;;;;;3.57;3.20;;;26.10;1.00;;;;;;2605357;54;20196;-60
2024/01/27 00:41:48;;;;;;;3.60;3.23;;;26.00;1.00;;;;;;2605104;49;20269;-59
2024/01/27 00:44:14;;;;;;;3.60;3.30;;;26.00;1.00;;;;;;2604517;54;20169;-68
2024/01/27 00:46:40;;;;;;;6.00;3.20;;;25.90;1.00;;;;;;2605822;54;20655;-64
2024/01/27 00:49:06;;;;;;;4.30;3.40;;;25.90;1.00;;;;;;2604936;54;20236;-65
2024/01/27 00:51:32;;;;;;;4.47;2.63;;;25.90;1.00;;;;;;2606154;54;20163;-65
2024/01/27 00:53:57;;;;;;;3.50;3.00;;;25.80;1.00;;;;;;2604399;54;20183;-58
2024/01/27 00:56:23;;;;;;;4.93;3.50;;;25.80;1.00;;;;;;2605551;54;20444;-58
2024/01/27 00:58:49;;;;;;;5.03;2.90;;;25.80;1.00;;;;;;2604923;54;20166;-56
2024/01/27 01:01:14;;;;;;;6.43;3.60;;;25.70;1.00;;;;;;2605431;39;21288;-58
2024/01/27 01:03:40;;;;;;;4.73;2.93;;;25.60;1.00;;;;;;2605405;47;20177;-59
2024/01/27 01:06:06;;;;;;;3.80;2.33;;;25.60;1.00;;;;;;2604877;54;20185;-59
2024/01/27 01:08:32;;;;;;;5.80;3.23;;;25.60;1.00;;;;;;2605446;54;20261;-57
2024/01/27 01:10:58;;;;;;;4.10;2.93;;;25.50;1.00;;;;;;2604590;54;20172;-60
2024/01/27 01:13:24;;;;;;;5.80;3.17;;;25.50;1.00;;;;;;2604160;54;20417;-57
2024/01/27 01:15:49;;;;;;;3.90;2.50;;;25.50;1.00;;;;;;2604069;54;20529;-60
2024/01/27 01:18:15;;;;;;;3.80;3.20;;;25.40;1.00;;;;;;2605471;54;20252;-58
2024/01/27 01:20:41;;;;;;;4.53;3.60;;;25.40;1.00;;;;;;2604253;54;20178;-56
2024/01/27 01:23:07;;;;;;;3.80;2.60;;;25.40;1.00;;;;;;2605398;47;20174;-58
2024/01/27 01:25:33;;;;;;;4.83;3.03;;;25.30;1.00;;;;;;2605783;54;20194;-59
2024/01/27 01:27:58;;;;;;;3.40;2.50;;;25.30;1.00;;;;;;2604410;54;20425;-58
2024/01/27 01:30:24;;;;;;;4.30;2.70;;;25.30;1.00;;;;;;2605153;54;20165;-59
2024/01/27 01:32:50;;;;;;;4.77;3.40;;;25.20;1.00;;;;;;2605148;54;20156;-58
2024/01/27 01:35:16;;;;;;;3.77;2.90;;;25.20;1.00;;;;;;2605841;54;20198;-58
2024/01/27 01:37:41;;;;;;;4.80;3.33;;;25.20;1.00;;;;;;2605967;39;20637;-57
2024/01/27 01:40:07;;;;;;;4.43;3.03;;;25.10;1.00;;;;;;2605130;54;20683;-60
2024/01/27 01:42:33;;;;;;;5.33;3.37;;;25.10;1.00;;;;;;2604820;47;20176;-58
2024/01/27 01:44:59;;;;;;;4.63;2.57;;;25.10;1.00;;;;;;2604438;54;20445;-58
2024/01/27 01:47:25;;;;;;;3.90;3.13;;;25.10;1.00;;;;;;2606970;47;20194;-61
2024/01/27 01:49:52;;;;;;;3.23;2.93;;;25.00;1.00;;;;;;2605765;54;20181;-59
2024/01/27 01:52:20;;;;;;;4.03;2.50;;;25.00;1.00;;;;;;2606212;54;21244;-59
2024/01/27 01:54:50;;;;;;;4.60;3.10;;;25.00;1.00;;;;;;2604944;54;20446;-65
2024/01/27 01:57:16;;;;;;;5.40;2.97;;;25.00;1.00;;;;;;2605955;39;20785;-65
2024/01/27 01:59:42;;;;;;;2.87;2.37;;;24.90;1.00;;;;;;2606137;54;20456;-68
2024/01/27 02:02:08;;;;;;;4.40;3.00;;;24.90;1.00;;;;;;2603532;54;20466;-64
2024/01/27 02:04:45;;;;;;;5.27;3.10;;;24.90;1.00;;;;;;2604995;47;20443;-60
2024/01/27 02:07:11;;;;;;;4.10;2.93;;;24.90;1.00;;;;;;2604321;54;20461;-61
2024/01/27 02:09:37;;;;;;;3.77;2.70;;;24.90;1.00;;;;;;2605258;54;20999;-61
2024/01/27 02:12:04;;;;;;;5.30;2.53;;;24.80;1.00;;;;;;2604049;54;20432;-61
2024/01/27 02:14:30;;;;;;;3.57;2.70;;;24.80;1.00;;;;;;2604590;54;20177;-61
2024/01/27 02:16:56;;;;;;;2.90;2.47;;;24.80;1.00;;;;;;2604016;54;20434;-61
2024/01/27 02:19:22;;;;;;;4.93;2.93;;;24.70;1.00;;;;;;2605385;54;20425;-62
2024/01/27 02:21:48;;;;;;;4.30;3.03;;;24.70;1.00;;;;;;2603118;47;20422;-62
2024/01/27 02:24:14;;;;;;;4.60;2.43;;;24.70;1.00;;;;;;2604398;54;20441;-62
2024/01/27 02:26:40;;;;;;;4.17;2.90;;;24.70;1.00;;;;;;2604221;47;20171;-60
2024/01/27 02:29:05;;;;;;;3.10;2.50;;;24.70;1.00;;;;;;2604900;54;20298;-61
2024/01/27 02:31:31;;;;;;;4.70;3.03;;;24.70;1.00;;;;;;2605792;54;20294;-61
2024/01/27 02:33:57;;;;;;;4.63;3.13;;;24.60;1.00;;;;;;2605159;54;20165;-61
2024/01/27 02:36:22;;;;;;;5.03;2.97;;;24.60;1.00;;;;;;2604876;46;20168;-61
2024/01/27 02:38:48;;;;;;;5.07;2.60;;;24.60;1.00;;;;;;2603899;54;20173;-61
2024/01/27 02:41:14;;;;;;;3.80;2.80;;;24.50;1.00;;;;;;2604176;54;20164;-61
2024/01/27 02:43:40;;;;;;;4.50;3.17;;;24.50;1.00;;;;;;2604902;54;20169;-61
2024/01/27 02:46:11;;;;;;;3.10;2.33;;;24.50;1.00;;;;;;2605433;31;20971;-60
2024/01/27 02:48:40;;;;;;;3.23;2.63;;;24.50;1.00;;;;;;2603353;47;20471;-61
2024/01/27 02:51:05;;;;;;;3.50;2.97;;;24.50;1.00;;;;;;2603080;54;20429;-61
2024/01/27 02:53:31;;;;;;;3.27;2.80;;;24.40;1.00;;;;;;2605467;54;20434;-61
2024/01/27 02:55:57;;;;;;;2.50;2.30;;;24.40;1.00;;;;;;2604501;39;21102;-61
2024/01/27 02:58:22;;;;;;;3.60;3.00;;;24.40;1.00;;;;;;2604824;54;20154;-61
2024/01/27 03:00:48;;;;;;;5.70;2.87;;;24.40;1.00;;;;;;2604872;54;20209;-61
2024/01/27 03:03:14;;;;;;;5.43;3.13;;;24.40;1.00;;;;;;2605353;54;20198;-61
2024/01/27 03:05:40;;;;;;;4.20;2.80;;;24.30;1.00;;;;;;2605319;54;20158;-59
2024/01/27 03:08:07;;;;;;;4.97;3.23;;;24.30;1.00;;;;;;2604577;54;20458;-60
2024/01/27 03:10:32;;;;;;;6.60;2.40;;;24.30;1.00;;;;;;2604493;54;20434;-60
2024/01/27 03:12:58;;;;;;;3.17;2.50;;;24.30;1.00;;;;;;2604266;39;20781;-58
2024/01/27 03:15:24;;;;;;;3.93;2.50;;;24.30;1.00;;;;;;2605128;54;20160;-61
2024/01/27 03:17:49;;;;;;;3.93;2.50;;;24.30;1.00;;;;;;2605400;54;20976;-64
2024/01/27 03:20:15;;;;;;;4.80;2.90;;;24.40;1.00;;;;;;2604412;54;20207;-62
2024/01/27 03:22:41;;;;;;;5.40;2.60;;;24.30;1.00;;;;;;2604604;54;20231;-62
2024/01/27 03:25:08;;;;;;;4.13;2.87;;;24.30;1.00;;;;;;2605378;39;20561;-62
2024/01/27 03:27:34;;;;;;;3.60;2.67;;;24.40;1.00;;;;;;2604995;54;20436;-62
2024/01/27 03:30:01;;;;;;;4.10;2.80;;;24.40;1.00;;;;;;2605492;54;20500;-62
2024/01/27 03:32:27;;;;;;;4.73;2.90;;;24.30;1.00;;;;;;2605091;54;20423;-61
2024/01/27 03:34:53;;;;;;;5.07;3.23;;;24.30;1.00;;;;;;2605298;47;20407;-61
2024/01/27 03:37:21;;;;;;;3.60;2.73;;;24.30;1.00;;;;;;2603453;54;20151;-62
2024/01/27 03:39:46;;;;;;;3.10;2.23;;;24.30;1.00;;;;;;2605424;39;21048;-62
2024/01/27 03:42:12;;;;;;;3.87;3.40;;;24.30;1.00;;;;;;2604708;54;20469;-63
2024/01/27 03:44:38;;;;;;;3.80;2.50;;;24.30;1.00;;;;;;2604206;54;20168;-63
2024/01/27 03:47:03;;;;;;;3.20;2.40;;;24.20;1.00;;;;;;2603469;54;20174;-63
2024/01/27 03:49:29;;;;;;;4.63;3.30;;;24.20;1.00;;;;;;2602280;54;20177;-62
2024/01/27 03:51:55;;;;;;;5.33;2.60;;;24.10;1.00;;;;;;2604327;47;20802;-62
2024/01/27 03:54:20;;;;;;;2.83;2.20;;;24.20;1.00;;;;;;2604991;54;20186;-61
2024/01/27 03:56:46;;;;;;;8.13;2.60;;;24.10;1.00;;;;;;2604832;54;20176;-63
2024/01/27 03:59:12;;;;;;;6.47;2.73;;;24.10;1.00;;;;;;2604773;39;20795;-61
2024/01/27 04:01:38;;;;;;;4.50;3.07;;;24.10;1.00;;;;;;2603928;47;20463;-62
2024/01/27 04:04:03;;;;;;;5.00;2.40;;;24.00;1.00;;;;;;2604921;39;20555;-62
2024/01/27 04:06:35;;;;;;;3.40;2.60;;;24.10;1.00;;;;;;2603561;54;21090;-63
2024/01/27 04:09:00;;;;;;;4.63;2.77;;;24.00;1.00;;;;;;2604851;47;20163;-63
2024/01/27 04:11:26;;;;;;;3.47;2.63;;;24.00;1.00;;;;;;2605153;54;20435;-64
2024/01/27 04:13:52;;;;;;;2.47;2.27;;;24.00;1.00;;;;;;2604716;54;20270;-61
2024/01/27 04:16:18;;;;;;;5.03;2.93;;;24.00;1.00;;;;;;2605608;39;20521;-66
2024/01/27 04:18:43;;;;;;;3.60;2.57;;;23.90;1.00;;;;;;2603340;50;20163;-65
2024/01/27 04:21:09;;;;;;;2.70;2.37;;;24.00;1.00;;;;;;2603974;54;20169;-66
2024/01/27 04:23:35;;;;;;;6.20;3.20;;;23.90;1.00;;;;;;2603785;54;20283;-66
2024/01/27 04:26:00;;;;;;;4.37;2.93;;;23.90;1.00;;;;;;2605153;54;20164;-62
2024/01/27 04:28:26;;;;;;;3.03;2.50;;;23.90;1.00;;;;;;2604754;54;21289;-63
2024/01/27 04:30:52;;;;;;;4.70;2.70;;;23.90;1.00;;;;;;2603610;54;20174;-62
2024/01/27 04:33:18;;;;;;;3.80;2.33;;;23.80;1.00;;;;;;2604059;54;20162;-62
2024/01/27 04:35:43;;;;;;;4.47;2.53;;;23.80;1.00;;;;;;2604536;39;20684;-63
2024/01/27 04:38:09;;;;;;;3.27;2.60;;;23.80;1.00;;;;;;2604272;54;20255;-62
2024/01/27 04:40:38;;;;;;;2.40;2.13;;;23.80;1.00;;;;;;2605177;54;20171;-62
2024/01/27 04:43:04;;;;;;;3.30;2.60;;;23.80;1.00;;;;;;2603304;54;20162;-62
2024/01/27 04:45:29;;;;;;;4.23;2.60;;;23.70;1.00;;;;;;2603526;54;20441;-63
2024/01/27 04:47:55;;;;;;;2.70;2.20;;;23.80;1.00;;;;;;2604378;54;20477;-62
2024/01/27 04:50:21;;;;;;;3.40;2.53;;;23.70;1.00;;;;;;2601867;54;20167;-61
2024/01/27 04:52:46;;;;;;;2.50;2.30;;;23.70;1.00;;;;;;2604944;54;20165;-62
2024/01/27 04:55:12;;;;;;;2.73;2.10;;;23.70;1.00;;;;;;2604073;54;20213;-63
2024/01/27 04:57:38;;;;;;;4.63;2.53;;;23.70;1.00;;;;;;2604207;47;20176;-63
2024/01/27 05:00:07;;;;;;;3.37;2.53;;;23.70;1.00;;;;;;2605484;47;20223;-62
2024/01/27 05:02:33;;;;;;;3.17;1.90;;;23.70;1.00;;;;;;2602269;54;21076;-61
2024/01/27 05:04:59;;;;;;;5.77;2.60;;;23.70;1.00;;;;;;2603425;54;20422;-61
2024/01/27 05:07:24;;;;;;;3.40;2.90;;;23.70;1.00;;;;;;2603210;54;20455;-62
2024/01/27 05:09:50;;;;;;;4.00;2.40;;;23.70;1.00;;;;;;2604223;31;20619;-63
2024/01/27 05:12:16;;;;;;;5.33;3.30;;;23.70;1.00;;;;;;2603978;54;20266;-64
2024/01/27 05:14:45;;;;;;;4.37;2.30;;;23.70;1.00;;;;;;2604233;54;20165;-62
2024/01/27 05:17:11;;;;;;;3.47;2.47;;;23.60;1.00;;;;;;2605272;54;20755;-62
2024/01/27 05:19:36;;;;;;;3.93;2.60;;;23.60;1.00;;;;;;2604927;54;20423;-61
2024/01/27 05:22:02;;;;;;;3.17;2.80;;;23.60;1.00;;;;;;2605629;47;20165;-62
2024/01/27 05:24:28;;;;;;;2.80;2.40;;;23.60;1.00;;;;;;2605063;54;20190;-60
2024/01/27 05:26:54;;;;;;;4.20;2.47;;;23.60;1.00;;;;;;2603760;54;20429;-60
2024/01/27 05:29:19;;;;;;;3.47;2.70;;;23.60;1.00;;;;;;2605415;54;20188;-61
2024/01/27 05:31:45;;;;;;;4.70;2.60;;;23.50;1.00;;;;;;2605982;54;20166;-60
2024/01/27 05:34:11;;;;;;;3.23;1.90;;;23.50;1.00;;;;;;2604576;54;20686;-62
2024/01/27 05:36:37;;;;;;;3.30;2.47;;;23.50;1.00;;;;;;2605223;39;20562;-63
2024/01/27 05:39:05;;;;;;;2.93;2.57;;;23.50;1.00;;;;;;2605630;47;20429;-62
2024/01/27 05:41:31;;;;;;;4.27;2.50;;;23.60;1.00;;;;;;2604827;54;20183;-63
2024/01/27 05:43:57;;;;;;;3.13;2.40;;;23.60;1.00;;;;;;2605038;54;20418;-63
2024/01/27 05:46:26;;;;;;;5.27;2.33;;;23.60;1.00;;;;;;2604905;54;20242;-63
2024/01/27 05:48:53;;;;;;;3.80;3.07;;;23.60;1.00;;;;;;2605161;54;20433;-61
2024/01/27 05:51:20;;;;;;;2.83;2.40;;;23.60;1.00;;;;;;2604752;54;20439;-64
2024/01/27 05:53:46;;;;;;;6.17;2.60;;;23.60;1.00;;;;;;2605621;47;20445;-61
2024/01/27 05:56:11;;;;;;;3.30;2.27;;;23.60;1.00;;;;;;2604096;54;20423;-63
2024/01/27 05:58:37;;;;;;;3.37;2.20;;;23.60;1.00;;;;;;2605455;54;20427;-62
2024/01/27 06:01:03;;;;;;;4.20;2.80;;;23.60;1.00;;;;;;2605131;39;20457;-63
2024/01/27 06:03:29;;;;;;;3.23;1.90;;;23.60;1.00;;;;;;2604637;54;20443;-62
2024/01/27 06:05:55;;;;;;;2.03;1.57;;;23.60;1.00;;;;;;2604159;54;20159;-63
2024/01/27 06:08:20;;;;;;;5.33;2.43;;;23.60;1.00;;;;;;2604632;54;20668;-62
2024/01/27 06:10:47;;;;;;;4.13;3.00;;;23.50;1.00;;;;;;2605113;54;20155;-61
2024/01/27 06:13:12;;;;;;;4.03;2.23;;;23.60;1.00;;;;;;2605509;54;20186;-62
2024/01/27 06:15:39;;;;;;;4.17;1.70;;;23.60;1.00;;;;;;2604056;47;21927;-62
2024/01/27 06:18:04;;;;;;;2.40;1.83;;;23.60;1.00;;;;;;2605361;39;20922;-62
2024/01/27 06:20:30;;;;;;;4.60;2.17;;;23.60;1.00;;;;;;2603998;47;20444;-62
2024/01/27 06:22:56;;;;;;;2.63;1.93;;;23.50;1.00;;;;;;2604325;54;20180;-63
2024/01/27 06:25:22;;;;;;;4.27;2.40;;;23.60;1.00;;;;;;2603878;54;20179;-62
2024/01/27 06:27:48;;;;;;;4.63;2.13;;;23.60;1.00;;;;;;2604217;54;20166;-62
2024/01/27 06:30:15;;;;;;;3.20;2.50;;;23.60;1.00;;;;;;2603924;54;20186;-64
2024/01/27 06:32:41;;;;;;;3.23;2.17;;;23.50;1.00;;;;;;2604373;54;21002;-65
2024/01/27 06:35:07;;;;;;;2.80;1.93;;;23.50;1.00;;;;;;2604896;39;20903;-62
2024/01/27 06:37:33;;;;;;;3.97;2.20;;;23.50;1.00;;;;;;2604222;54;20427;-62
2024/01/27 06:39:58;;;;;;;3.70;2.50;;;23.50;1.00;;;;;;2604655;54;20444;-62
2024/01/27 06:42:24;;;;;;;3.07;1.70;;;23.50;1.00;;;;;;2604146;54;20285;-63
2024/01/27 06:44:50;;;;;;;4.17;2.20;;;23.50;1.00;;;;;;2604896;54;20181;-60
2024/01/27 06:47:15;;;;;;;3.10;2.00;;;23.50;1.00;;;;;;2605266;47;20201;-60
2024/01/27 06:49:41;;;;;;;3.27;2.37;;;23.50;1.00;;;;;;2605941;50;20168;-59
2024/01/27 06:52:07;;;;;;;2.30;2.10;;;23.50;1.00;;;;;;2604417;47;20167;-60
2024/01/27 06:54:32;;;;;;;3.57;2.70;;;23.50;1.00;;;;;;2605651;54;20166;-60
2024/01/27 06:57:00;;;;;;;4.53;3.23;;;23.50;1.00;;;;;;2605564;54;20178;-58
2024/01/27 06:59:26;;;;;;;5.50;1.80;;;23.50;1.00;;;;;;2606074;54;20165;-59
2024/01/27 07:01:52;;;;;;;3.53;1.90;;;23.50;1.00;;;;;;2605120;54;21546;-58
2024/01/27 07:04:17;;;;;;;3.70;2.40;;;23.50;1.00;;;;;;2604185;46;20257;-58
2024/01/27 07:06:44;;;;;;;3.07;2.40;;;23.50;1.00;;;;;;2605274;54;20159;-59
2024/01/27 07:09:11;;;;;;;2.50;1.83;;;23.40;1.00;;;;;;2605265;54;20165;-58
2024/01/27 07:11:37;;;;;;;3.63;2.93;;;23.50;1.00;;;;;;2605756;39;21513;-59
2024/01/27 07:14:03;;;;;;;3.47;2.10;;;23.50;1.00;;;;;;2604681;54;20426;-58
2024/01/27 07:16:29;;;;;;;2.37;2.00;;;23.40;1.00;;;;;;2605317;54;20436;-60
2024/01/27 07:18:55;;;;;;;4.20;2.33;;;23.40;1.00;;;;;;2605538;54;20425;-59
2024/01/27 07:21:21;;;;;;;2.77;2.20;;;23.40;1.00;;;;;;2604630;51;20172;-59
2024/01/27 07:23:46;;;;;;;4.20;2.90;;;23.40;1.00;;;;;;2604275;54;20744;-59
2024/01/27 07:26:13;;;;;;;4.03;2.20;;;23.40;1.00;;;;;;2606291;54;20546;-60
2024/01/27 07:28:38;;;;;;;7.60;3.03;;;23.40;1.00;;;;;;2604916;54;20740;-59
2024/01/27 07:31:05;;;;;;;3.97;2.60;;;23.40;1.00;;;;;;2604875;54;20397;-59
2024/01/27 07:33:31;;;;;;;4.30;2.30;;;23.40;1.00;;;;;;2606874;39;20651;-59
2024/01/27 07:35:57;;;;;;;2.13;1.77;;;23.40;1.00;;;;;;2603584;49;20458;-61
2024/01/27 07:38:22;;;;;;;6.93;2.83;;;23.40;1.00;;;;;;2602070;54;20161;-58
2024/01/27 07:40:48;;;;;;;6.47;2.70;;;23.40;1.00;;;;;;2604657;54;20165;-59
2024/01/27 07:43:14;;;;;;;8.43;3.10;;;23.40;1.00;;;;;;2604739;54;20170;-62
2024/01/27 07:45:39;;;;;;;20.50;4.50;;;23.50;1.00;;;;;;2607087;54;20172;-63
2024/01/27 07:48:05;;;;;;;10.07;3.30;;;23.70;1.00;;;;;;2605126;47;20284;-59
2024/01/27 07:50:31;;;;;;;10.23;3.60;;;23.80;1.00;;;;;;2604836;54;20166;-62
2024/01/27 07:52:57;;;;;;;8.93;4.10;;;23.90;1.00;;;;;;2605425;54;20435;-61
2024/01/27 07:55:23;;;;;;;15.50;4.30;;;24.10;1.00;;;;;;2605316;47;20164;-63
2024/01/27 07:57:49;;;;;;;9.93;3.43;;;24.20;1.00;;;;;;2604408;54;20506;-59
2024/01/27 08:00:15;;;;;;;16.97;3.40;;;24.30;1.00;;;;;;2602731;47;20705;-59
2024/01/27 08:02:40;;;;;;;6.17;3.07;;;24.30;1.00;;;;;;2605297;54;20514;-59
2024/01/27 08:05:07;;;;;;;16.53;4.57;;;24.20;1.00;;;;;;2604667;54;20153;-57
2024/01/27 08:07:32;;;;;;;9.53;4.10;;;23.80;1.00;;;;;;2604351;54;20736;-57
2024/01/27 08:09:58;;;;;;;9.47;3.30;;;23.70;1.00;;;;;;2602817;54;20426;-59
2024/01/27 08:12:24;;;;;;;9.40;3.20;;;23.70;1.00;;;;;;2605904;54;20161;-60
2024/01/27 08:14:49;;;;;;;6.70;2.70;;;23.60;1.00;;;;;;2605017;54;20549;-59
2024/01/27 08:17:15;;;;;;;9.17;3.17;;;23.50;1.00;;;;;;2605084;51;20326;-62
2024/01/27 08:19:41;;;;;;;7.33;2.93;;;23.50;1.00;;;;;;2603336;47;20695;-61
2024/01/27 08:22:09;;;;;;;9.23;2.70;;;23.50;1.00;;;;;;2604100;54;20416;-60
2024/01/27 08:24:35;;;;;;;5.10;2.67;;;23.50;1.00;;;;;;2604647;54;20156;-59
2024/01/27 08:27:01;;;;;;;3.60;2.77;;;23.60;1.00;;;;;;2604152;54;21026;-61
2024/01/27 08:29:26;;;;;;;7.30;2.77;;;23.60;1.00;;;;;;2604985;47;20435;-61
2024/01/27 08:31:52;;;;;;;5.00;2.83;;;23.60;1.00;;;;;;2604006;54;20452;-64
2024/01/27 08:34:18;;;;;;;9.43;3.20;;;23.60;1.00;;;;;;2604815;47;20203;-63
2024/01/27 08:36:43;;;;;;;6.73;3.03;;;23.50;1.00;;;;;;2606040;54;20160;-63
2024/01/27 08:39:09;;;;;;;5.90;2.83;;;23.50;1.00;;;;;;2605753;39;20577;-64
2024/01/27 08:41:35;;;;;;;6.10;2.80;;;23.60;1.00;;;;;;2605078;39;20608;-66
2024/01/27 08:44:00;;;;;;;8.77;4.10;;;23.70;1.00;;;;;;2605216;54;20174;-63
2024/01/27 08:46:26;;;;;;;5.70;2.93;;;23.70;1.00;;;;;;2605485;54;20682;-64
2024/01/27 08:48:52;;;;;;;5.77;3.00;;;23.80;1.00;;;;;;2605396;47;20417;-63
2024/01/27 08:51:18;;;;;;;4.70;2.50;;;23.90;1.00;;;;;;2605338;54;20238;-63
2024/01/27 08:53:48;;;;;;;5.57;2.70;;;24.00;1.00;;;;;;2606115;47;20731;-63
2024/01/27 08:56:15;;;;;;;5.63;3.30;;;24.10;1.00;;;;;;2606133;54;20986;-64
2024/01/27 08:58:42;;;;;;;5.90;2.90;;;24.10;1.00;;;;;;2604874;47;20421;-61
2024/01/27 09:01:10;;;;;;;4.07;3.50;;;24.20;1.00;;;;;;2605950;54;20458;-62
2024/01/27 09:03:36;;;;;;;6.00;2.90;;;24.60;1.00;;;;;;2605873;54;20508;-61
2024/01/27 09:06:01;;;;;;;5.27;2.90;;;25.10;1.00;;;;;;2605023;39;21013;-60
2024/01/27 09:08:27;;;;;;;8.20;3.30;;;25.20;1.00;;;;;;2605590;47;20188;-62
2024/01/27 09:10:52;;;;;;;7.07;3.70;;;25.00;1.00;;;;;;2605812;47;20176;-61
2024/01/27 09:13:18;;;;;;;3.63;3.00;;;25.00;1.00;;;;;;2605800;54;20180;-61
2024/01/27 09:15:44;;;;;;;6.17;3.80;;;25.00;1.00;;;;;;2607167;31;20651;-60
2024/01/27 09:18:09;;;;;;;6.87;2.93;;;24.80;1.00;;;;;;2605890;54;20159;-61
2024/01/27 09:20:35;;;;;;;5.83;3.30;;;24.90;1.00;;;;;;2606748;54;20223;-60
2024/01/27 09:23:01;;;;;;;3.63;2.50;;;25.10;1.00;;;;;;2606212;54;20163;-61
2024/01/27 09:25:27;;;;;;;4.17;2.50;;;25.20;1.00;;;;;;2607119;31;20677;-64
2024/01/27 09:27:54;;;;;;;10.00;3.60;;;25.00;1.00;;;;;;2606468;39;21045;-60
2024/01/27 09:30:20;;;;;;;5.03;3.30;;;24.90;1.00;;;;;;2605587;54;20446;-63
2024/01/27 09:32:46;;;;;;;6.47;2.70;;;25.00;1.00;;;;;;2606363;54;20426;-61
2024/01/27 09:35:12;;;;;;;5.10;3.17;;;25.00;1.00;;;;;;2606271;47;20528;-62
2024/01/27 09:37:37;;;;;;;3.40;2.40;;;25.20;1.00;;;;;;2606657;47;20254;-62
2024/01/27 09:40:04;;;;;;;5.30;2.83;;;25.20;1.00;;;;;;2605453;54;20164;-60
2024/01/27 09:42:33;;;;;;;5.80;3.17;;;25.30;1.00;;;;;;2604941;39;20660;-60
2024/01/27 09:44:59;;;;;;;4.40;2.03;;;25.30;1.00;;;;;;2604398;54;20431;-62
2024/01/27 09:47:25;;;;;;;7.13;3.10;;;25.50;1.00;;;;;;2605571;54;20438;-60
2024/01/27 09:49:51;;;;;;;3.63;2.50;;;26.00;1.00;;;;;;2605580;39;21096;-61
2024/01/27 09:52:17;;;;;;;3.50;2.90;;;27.40;1.00;;;;;;2605604;54;21250;-62
2024/01/27 09:54:42;;;;;;;4.87;2.77;;;28.40;1.00;;;;;;2605125;47;20169;-62
2024/01/27 09:57:09;;;;;;;4.27;2.70;;;29.10;1.00;;;;;;2606427;54;20161;-64
2024/01/27 09:59:36;;;;;;;3.97;3.20;;;29.70;1.00;;;;;;2604019;54;20279;-59
2024/01/27 10:02:03;;;;;;;5.73;3.53;;;29.20;1.00;;;;;;2604134;47;20516;-52
2024/01/27 10:04:30;;;;;;;3.17;2.70;;;28.00;1.00;;;;;;2604568;54;20436;-60
2024/01/27 10:06:57;;;;;;;4.50;3.10;;;27.10;1.00;;;;;;2605340;54;21167;-60
2024/01/27 10:09:23;;;;;;;3.00;2.40;;;26.50;1.00;;;;;;2605302;47;20430;-60
2024/01/27 10:11:49;;;;;;;4.40;2.73;;;26.10;1.00;;;;;;2605525;54;20519;-59
2024/01/27 10:14:15;;;;;;;6.87;3.37;;;25.90;1.00;;;;;;2604629;54;20746;-65
2024/01/27 10:16:45;;;;;;;4.50;2.80;;;25.80;1.00;;;;;;2605292;47;20440;-65
2024/01/27 10:19:18;;;;;;;3.87;2.57;;;25.60;1.00;;;;;;2605491;47;20172;-62
2024/01/27 10:21:47;;;;;;;4.07;3.00;;;25.50;1.00;;;;;;2605606;51;20437;-64
2024/01/27 10:24:14;;;;;;;4.27;2.87;;;25.50;1.00;;;;;;2605413;39;20712;-62
2024/01/27 10:26:40;;;;;;;4.63;2.87;;;25.40;1.00;;;;;;2606061;39;20908;-63
2024/01/27 10:29:06;;;;;;;4.27;2.77;;;25.40;1.00;;;;;;2605530;54;20437;-64
2024/01/27 10:31:34;;;;;;;5.43;2.63;;;25.50;1.00;;;;;;2605300;54;20161;-59
2024/01/27 10:34:09;;;;;;;4.93;2.00;;;25.40;1.00;;;;;;2605736;39;21220;-60
2024/01/27 10:36:42;;;;;;;5.37;2.67;;;25.30;1.00;;;;;;2604923;54;21373;-62
2024/01/27 10:39:35;;;;;;;5.37;2.77;;;25.40;1.00;;;;;;2606039;39;20753;-64
2024/01/27 10:42:03;;;;;;;4.63;2.40;;;25.60;1.00;;;;;;2601906;54;20458;-62
2024/01/27 10:44:29;;;;;;;4.20;2.90;;;25.60;1.00;;;;;;2604575;54;20415;-63
2024/01/27 10:47:01;;;;;;;3.73;2.13;;;25.60;1.00;;;;;;2601449;54;20162;-64
2024/01/27 10:49:31;;;;;;;11.90;3.10;;;25.60;1.00;;;;;;2605046;54;20454;-63
2024/01/27 10:52:01;;;;;;;7.43;4.00;;;25.50;1.00;;;;;;2604781;54;20431;-61
2024/01/27 10:54:28;;;;;;;4.37;2.80;;;26.00;1.00;;;;;;2602876;54;20452;-63
2024/01/27 10:56:56;;;;;;;2.47;2.10;;;27.80;1.00;;;;;;2603563;54;20441;-62
2024/01/27 10:59:22;;;;;;;4.67;3.07;;;29.30;1.00;;;;;;2603084;54;20425;-62
2024/01/27 11:01:53;;;;;;;8.13;2.93;;;30.60;1.00;;;;;;2603634;47;20516;-61
2024/01/27 11:04:20;;;;;;;5.37;2.97;;;31.60;1.00;;;;;;2600317;54;20421;-63
2024/01/27 11:06:49;;;;;;;2.53;2.30;;;31.90;1.00;;;;;;2600736;54;20442;-62
2024/01/27 11:09:18;;;;;;;9.03;3.60;;;31.90;1.00;;;;;;2601092;54;20448;-61
2024/01/27 11:11:45;;;;;;;5.17;2.67;;;30.60;1.00;;;;;;2604039;47;20432;-61
2024/01/27 11:14:11;;;;;;;5.43;2.90;;;29.30;1.00;;;;;;2604004;54;20410;-61
2024/01/27 11:16:45;;;;;;;7.67;4.20;;;28.40;1.00;;;;;;2603310;54;20433;-61
2024/01/27 11:19:12;;;;;;;7.07;2.70;;;27.80;1.00;;;;;;2604222;54;20431;-61
2024/01/27 11:21:37;;;;;;;5.40;3.33;;;27.20;1.00;;;;;;2603344;54;20410;-61
2024/01/27 11:24:17;;;;;;;6.20;3.00;;;26.90;1.00;;;;;;2603619;54;21735;-59
2024/01/27 11:26:43;;;;;;;4.53;2.37;;;26.60;1.00;;;;;;2604968;54;20246;-60
2024/01/27 11:29:18;;;;;;;5.13;2.43;;;26.50;1.00;;;;;;2604230;54;20438;-58
2024/01/27 11:31:44;;;;;;;5.63;3.00;;;26.40;1.00;;;;;;2604281;54;20430;-60
2024/01/27 11:34:16;;;;;;;4.23;2.73;;;26.30;1.00;;;;;;2605283;54;20445;-59
2024/01/27 11:36:43;;;;;;;7.27;2.17;;;26.20;1.00;;;;;;2602695;54;20168;-61
2024/01/27 11:39:24;;;;;;;4.00;2.37;;;26.20;1.00;;;;;;2604127;54;21738;-59
2024/01/27 11:41:50;;;;;;;6.80;2.33;;;26.20;1.00;;;;;;2605029;54;20535;-58
2024/01/27 11:44:17;;;;;;;10.40;3.87;;;26.10;1.00;;;;;;2600302;54;20969;-59
2024/01/27 11:46:47;;;;;;;9.90;4.20;;;24.80;1.00;;;;;;2603471;54;20442;-60
2024/01/27 11:49:16;;;;;;;12.33;4.10;;;24.00;1.00;;;;;;2604174;54;20427;-60
2024/01/27 11:51:42;;;;;;;9.50;4.50;;;23.60;1.00;;;;;;2603272;39;20830;-62
2024/01/27 11:54:08;;;;;;;8.07;4.10;;;23.40;1.00;;;;;;2603343;54;20424;-61
2024/01/27 11:56:33;;;;;;;6.67;2.87;;;23.70;1.00;;;;;;2604803;54;20414;-61
2024/01/27 11:58:59;;;;;;;6.87;3.30;;;24.00;1.00;;;;;;2601405;47;20295;-61
2024/01/27 12:01:25;;;;;;;6.10;3.30;;;24.30;1.00;;;;;;2602066;54;20249;-60
2024/01/27 12:03:51;;;;;;;4.70;2.67;;;24.50;1.00;;;;;;2603388;54;21425;-59
2024/01/27 12:06:17;;;;;;;4.20;2.47;;;24.70;1.00;;;;;;2602309;54;20430;-59
2024/01/27 12:08:47;;;;;;;6.60;3.80;;;24.60;1.00;;;;;;2602275;54;20156;-59
2024/01/27 12:11:14;;;;;;;8.17;3.73;;;24.60;1.00;;;;;;2602716;39;20844;-59
2024/01/27 12:13:40;;;;;;;6.73;3.37;;;24.60;1.00;;;;;;2603630;47;20435;-60
2024/01/27 12:16:07;;;;;;;4.80;2.70;;;24.60;1.00;;;;;;2602799;54;20414;-61
2024/01/27 12:18:33;;;;;;;6.53;3.30;;;24.60;1.00;;;;;;2601883;54;20468;-61
2024/01/27 12:20:58;;;;;;;8.80;2.80;;;24.50;1.00;;;;;;2602762;54;20439;-60
2024/01/27 12:23:24;;;;;;;5.17;2.90;;;24.50;1.00;;;;;;2602565;54;20285;-60
2024/01/27 12:25:54;;;;;;;7.13;4.27;;;24.50;1.00;;;;;;2604801;47;20174;-60
2024/01/27 12:28:20;;;;;;;4.57;2.67;;;24.30;1.00;;;;;;2604034;54;20158;-59
2024/01/27 12:30:46;;;;;;;6.57;2.77;;;24.20;1.00;;;;;;2603275;54;20426;-60
2024/01/27 12:33:12;;;;;;;4.60;2.63;;;24.20;1.00;;;;;;2600655;54;20440;-65
2024/01/27 12:35:38;;;;;;;6.50;3.23;;;24.30;1.00;;;;;;2603813;31;20950;-65
2024/01/27 12:38:06;;;;;;;3.33;2.70;;;24.50;1.00;;;;;;2603891;54;20437;-60
2024/01/27 12:40:32;;;;;;;5.23;2.63;;;24.90;1.00;;;;;;2602434;54;20424;-64
2024/01/27 12:42:57;;;;;;;4.00;2.80;;;25.20;1.00;;;;;;2604651;39;20790;-63
2024/01/27 12:45:23;;;;;;;4.13;2.70;;;25.50;1.00;;;;;;2603746;47;20177;-60
2024/01/27 12:47:49;;;;;;;5.40;3.33;;;25.40;1.00;;;;;;2604021;54;20158;-59
2024/01/27 12:50:16;;;;;;;13.93;5.30;;;25.40;1.00;;;;;;2604515;54;20166;-59
2024/01/27 12:52:42;;;;;;;12.00;4.57;;;24.40;1.00;;;;;;2604962;54;20439;-59